• Join FlightAware (Why Join?)
  • Login
  • US Flag 
12:27PM EDT


 

Airport Tracker/Info


-or-


 

Live Flight TrackerFlight Track Log ✈ TMC875 ✈ 05-Jun-2013 ✈ KSLC - KHPN

Flight Track Log - Related Links

Times and Time Zones

All times are in EDT time to prevent confusion due to time zone crossing. See the TMC875 flight status page for this flight to view local times or setup timezone preferences in your user account.

Time Position Orientation Groundspeed Altitude Reporting Facility
EDT Latitude Longitude Course Direction KTS MPH feet Rate Location/Type
05:42PM 40.8061 -111.9653 77° East 192 221 5,000  Level Salt Lake Center
05:43PM 40.8544 -111.9714 355° North 211 243 7,000 2,220 Climbing Salt Lake Center
05:44PM 40.8922 -111.9753 356° North 220 253 8,400 2,400 Climbing Salt Lake Center
05:44PM 40.9208 -111.9803 352° North 246 283 9,500 2,580 Climbing Salt Lake Center
05:45PM 40.9661 -111.9850 355° North 264 304 11,100 2,400 Climbing Salt Lake Center
05:46PM 41.0375 -111.9442 23° Northeast 288 331 13,700 2,280 Climbing Salt Lake Center
05:47PM 41.0603 -111.8244 76° East 323 372 15,900 2,160 Climbing Salt Lake Center
05:48PM 40.9500 -111.0549 77° East  Level Estimated
05:48PM 41.0617 -111.6936 89° East 346 398 18,200  Level Salt Lake Center
05:49PM 41.0875 -111.5719 74° East 343 395 20,700 2,160 Climbing Salt Lake Center
05:50PM 41.1150 -111.4469 74° East 353 406 22,700 1,800 Climbing Salt Lake Center
05:51PM 41.1461 -111.2886 75° East 374 430 24,500 1,740 Climbing Salt Lake Center
05:52PM 41.1733 -111.1486 75° East 391 450 26,400 1,680 Climbing Salt Lake Center
05:53PM 41.2019 -111.0081 75° East 396 456 28,000 1,200 Climbing Salt Lake Center
05:54PM 41.2331 -110.8594 74° East 407 468 28,900 480 Climbing Salt Lake Center
05:55PM 41.2692 -110.6822 75° East 442 509 29,000  Climbing Salt Lake Center
05:56PM 41.2994 -110.5281 75° East 449 517 29,000 -60 Level Salt Lake Center
05:57PM 41.3314 -110.3761 74° East 446 513 28,900  Descending Salt Lake Center
05:58PM 41.3653 -110.2011 75° East 439 505 29,000  Climbing Salt Lake Center
05:59PM 41.3942 -110.0492 76° East 442 509 29,000  Level Salt Lake Center
06:00PM 41.4294 -109.8722 75° East 444 511 29,000  Level Salt Lake Center
06:01PM 41.4589 -109.7181 76° East 447 514 29,000  Level Salt Lake Center
06:02PM 41.4933 -109.5361 76° East 451 519 29,000  Level Salt Lake Center
06:03PM 41.5236 -109.3794 75° East 453 521 29,000  Level Salt Lake Center
06:04PM 41.5536 -109.2194 76° East 457 526 29,000  Level Salt Lake Center
06:05PM 41.5883 -109.0311 76° East 457 526 29,000  Level Salt Lake Center
06:06PM 41.6125 -108.8697 79° East 458 527 29,000  Level Salt Lake Center
06:07PM 41.6364 -108.7108 79° East 456 525 29,000  Level Salt Lake Center
06:08PM 41.6614 -108.5364 79° East 434 499 29,000  Level Salt Lake Center
06:09PM 41.6828 -108.3844 79° East 434 499 29,000  Level Salt Lake Center
06:11PM 41.7089 -108.2072 79° East 435 501 29,000  Level Salt Lake Center
06:12PM 41.7311 -108.0544 79° East 439 505 29,100  Climbing Salt Lake Center
06:13PM 41.7556 -107.8794 79° East 431 496 29,100  Level Salt Lake Center
06:13PM 41.7625 -107.8264 80° East 435 501 29,100 420 Level Denver Center
06:14PM 41.7869 -107.6475 80° East 437 503 29,700 1,020 Climbing Denver Center
06:15PM 41.8072 -107.4978 80° East 431 496 31,300 1,380 Climbing Denver Center
06:16PM 41.8269 -107.3475 80° East 429 494 32,600 1,380 Climbing Denver Center
06:17PM 41.8500 -107.1719 80° East 429 494 34,200 1,440 Climbing Denver Center
06:18PM 41.8694 -107.0256 80° East 419 482 35,600 1,320 Climbing Denver Center
06:19PM 41.8925 -106.8578 79° East 411 473 37,000 1,200 Climbing Denver Center
06:20PM 41.9092 -106.7144 81° East 407 468 38,100 960 Climbing Denver Center
06:21PM 41.9308 -106.5511 80° East 400 460 39,000 600 Climbing Denver Center
06:22PM 41.9464 -106.4397 79° East 402 463 39,400 540 Climbing Denver Center
06:23PM 41.9686 -106.2489 81° East 404 465 40,200 720 Climbing Denver Center
06:24PM 41.9892 -106.0839 80° East 403 464 41,000 360 Climbing Denver Center
06:25PM 42.0069 -105.9431 80° East 400 460 41,000  Level Denver Center
06:26PM 42.0233 -105.7953 81° East 413 475 41,000  Level Denver Center
06:27PM 42.0461 -105.6203 80° East 424 488 41,000  Level Denver Center
06:28PM 42.0639 -105.4644 81° East 438 504 41,000  Level Denver Center
06:30PM 42.0842 -105.2806 81° East 444 511 41,000  Level Denver Center
06:31PM 42.1031 -105.1228 81° East 447 514 41,000  Level Denver Center
06:32PM 42.1239 -104.9353 81° East 453 521 41,000  Level Denver Center
06:33PM 42.1408 -104.7756 82° East 454 522 41,000  Level Denver Center
06:34PM 42.1619 -104.5908 81° East 449 517 41,000  Level Denver Center
06:35PM 42.1783 -104.4308 82° East 452 520 41,000  Level Denver Center
06:36PM 42.1989 -104.2433 82° East 455 524 41,000  Level Denver Center
06:37PM 42.2156 -104.0817 82° East 457 526 41,000  Level Denver Center
06:38PM 42.2356 -103.8922 82° East 459 528 41,000  Level Denver Center
06:39PM 42.2519 -103.7317 82° East 456 525 41,000  Level Denver Center
06:40PM 42.2708 -103.5406 82° East 460 529 41,000  Level Denver Center
06:41PM 42.2881 -103.3775 82° East 460 529 41,000  Level Denver Center
06:42PM 42.3044 -103.1875 83° East 457 526 41,000  Level Denver Center
06:43PM 42.3206 -103.0244 82° East 458 527 41,000  Level Denver Center
06:44PM 42.3411 -102.8317 82° East 464 534 41,000  Level Denver Center
06:45PM 42.3556 -102.6692 83° East 459 528 41,000  Level Denver Center
06:46PM 42.3733 -102.4769 83° East 461 531 41,000  Level Denver Center
06:47PM 42.3878 -102.3122 83° East 461 531 41,000  Level Denver Center
06:48PM 42.4042 -102.1206 83° East 460 529 41,000  Level Denver Center
06:49PM 42.4189 -101.9564 83° East 459 528 41,000  Level Denver Center
06:50PM 42.4333 -101.7786 84° East 460 529 41,000  Level Denver Center
06:51PM 42.4497 -101.5864 83° East 459 528 41,000  Level Denver Center
06:52PM 42.4628 -101.4203 84° East 462 532 41,000  Level Denver Center
06:53PM 42.4764 -101.2550 84° East 462 532 41,000  Level Denver Center
06:54PM 42.4908 -101.0625 84° East 461 531 41,000  Level Denver Center
06:55PM 42.5036 -100.8972 84° East 459 528 41,000  Level Denver Center
06:56PM 42.5175 -100.7047 84° East 462 532 41,000  Level Denver Center
06:57PM 42.5306 -100.5378 84° East 463 533 41,000  Level Denver Center
06:59PM 42.5442 -100.3447 84° East 463 533 41,000  Level Minneapolis Center
07:00PM 42.5553 -100.1778 85° East 464 534 41,000  Level Denver Center
07:01PM 42.5689 -99.9969 84° East 463 533 41,000  Level Denver Center
07:02PM 42.5833 -99.8222 84° East 465 535 41,000  Level Denver Center
07:03PM 42.6017 -99.6136 83° East 466 536 41,000  Level Minneapolis Center
07:04PM 42.6161 -99.4372 84° East 468 539 41,000  Level Minneapolis Center
07:05PM 42.6311 -99.2603 83° East 470 541 41,000  Level Minneapolis Center
07:06PM 42.6450 -99.0811 84° East 472 543 41,000  Level Minneapolis Center
07:07PM 42.6606 -98.8733 84° East 465 535 41,000  Level Minneapolis Center
07:08PM 42.6744 -98.6967 84° East 468 539 41,000  Level Minneapolis Center
07:09PM 42.6883 -98.5189 84° East 470 541 41,000  Level Minneapolis Center
07:10PM 42.7008 -98.3417 84° East 471 542 41,000  Level Minneapolis Center
07:11PM 42.7133 -98.1739 84° East 474 545 41,000  Level Minneapolis Center
07:12PM 42.7278 -97.9606 85° East 474 545 41,000  Level Minneapolis Center
07:13PM 42.7397 -97.7822 85° East 475 547 41,000  Level Minneapolis Center
07:14PM 42.7522 -97.6061 84° East 472 543 41,000  Level Minneapolis Center
07:15PM 42.7636 -97.4275 85° East 474 545 41,000  Level Minneapolis Center
07:16PM 42.7747 -97.2494 85° East 474 545 41,000  Level Minneapolis Center
07:17PM 42.7881 -97.0356 85° East 475 547 41,000  Level Minneapolis Center
07:18PM 42.7989 -96.8578 85° East 475 547 41,000  Level Minneapolis Center
07:19PM 42.8094 -96.6808 85° East 473 544 41,000  Level Minneapolis Center
07:20PM 42.8200 -96.5019 85° East 475 547 41,000  Level Minneapolis Center
07:21PM 42.8289 -96.3258 86° East 472 543 41,000  Level Minneapolis Center
07:22PM 42.8389 -96.1464 86° East 475 547 41,000  Level Minneapolis Center
07:23PM 42.8497 -95.9322 86° East 475 547 41,000  Level Minneapolis Center
07:24PM 42.8589 -95.7542 86° East 474 545 41,000  Level Minneapolis Center
07:25PM 42.8669 -95.5769 86° East 472 543 41,000  Level Minneapolis Center
07:27PM 42.8758 -95.3978 86° East 475 547 41,000  Level Minneapolis Center
07:28PM 42.8839 -95.2203 86° East 474 545 41,000  Level Minneapolis Center
07:29PM 42.8939 -95.0050 86° East 475 547 41,000  Level Minneapolis Center
07:30PM 42.9008 -94.8272 87° East 474 545 41,000  Level Minneapolis Center
07:31PM 42.9083 -94.6475 87° East 476 548 41,000  Level Minneapolis Center
07:32PM 42.9156 -94.4617 87° East 482 555 41,000  Level Minneapolis Center
07:33PM 42.9225 -94.2842 87° East 475 547 41,000  Level Minneapolis Center
07:34PM 42.9264 -94.1047 88° East 477 549 41,000  Level Minneapolis Center
07:35PM 42.9336 -93.8892 87° East 478 550 41,000  Level Minneapolis Center
07:36PM 42.9400 -93.7100 87° East 478 550 41,000  Level Minneapolis Center
07:37PM 42.9453 -93.5292 88° East 480 552 41,000  Level Minneapolis Center
07:38PM 42.9519 -93.3492 87° East 481 554 41,000  Level Minneapolis Center
07:39PM 42.9578 -93.1678 87° East 481 554 41,000  Level Minneapolis Center
07:40PM 42.9631 -92.9517 88° East 481 554 41,000  Level Minneapolis Center
07:41PM 42.9675 -92.7703 88° East 480 552 41,000  Level Minneapolis Center
07:42PM 42.9719 -92.5889 88° East 482 555 41,000  Level Minneapolis Center
07:43PM 42.9750 -92.3739 89° East 479 551 41,000  Level Chicago Center
07:44PM 42.9786 -92.1947 88° East 477 549 41,000  Level Chicago Center
07:45PM 42.9825 -92.0489 88° East 478 550 41,000  Level Minneapolis Center
07:46PM 42.9856 -91.8297 89° East 481 554 41,000  Level Chicago Center
07:47PM 42.9889 -91.6447 89° East 484 557 41,000  Level Chicago Center
07:48PM 42.9919 -91.4567 89° East 486 559 41,000  Level Minneapolis Center
07:49PM 42.9936 -91.2714 89° East 487 560 41,000  Level Minneapolis Center
07:50PM 42.9953 -91.0858 89° East 489 563 41,000  Level Minneapolis Center
07:51PM 42.9981 -90.8658 89° East 491 565 41,000  Level Chicago Center
07:52PM 42.9986 -90.6814 90° East 490 564 41,000  Level Chicago Center
07:54PM 42.9997 -90.4978 89° East 488 562 41,000  Level Chicago Center
07:55PM 42.9994 -90.3128 90° East 489 563 41,000  Level Chicago Center
07:56PM 43.0000 -90.0906 90° East 492 566 41,000  Level Chicago Center
07:57PM 42.9986 -89.9119 91° East 492 566 41,000  Level Chicago Center
07:58PM 42.9989 -89.7264 90° East 490 564 41,000  Level Chicago Center
07:59PM 42.9978 -89.5097 90° East 490 564 41,000  Level Chicago Center
08:00PM 42.9972 -89.3247 90° East 489 563 41,000  Level Chicago Center
08:01PM 42.9956 -89.1386 91° East 489 563 41,000  Level Chicago Center
08:02PM 42.9944 -88.9533 90° East 491 565 41,000  Level Chicago Center
08:03PM 42.9922 -88.7672 91° East 491 565 41,000  Level Chicago Center
08:04PM 42.9889 -88.5511 91° East 490 564 41,000  Level Chicago Center
08:05PM 42.9867 -88.3642 91° East 496 571 41,000  Level Chicago Center
08:06PM 42.9847 -88.1794 91° East 491 565 41,000  Level Chicago Center
08:07PM 42.9808 -87.9936 92° East 491 565 41,000  Level Chicago Center
08:08PM 42.9767 -87.7794 91° East 487 560 41,000  Level Chicago Center
08:09PM 42.9733 -87.5936 91° East 490 564 41,000  Level Chicago Center
08:10PM 42.9686 -87.4097 92° East 486 559 41,000  Level Chicago Center
08:11PM 42.9642 -87.2186 92° East 492 566 41,000  Level Chicago Center
08:12PM 42.9603 -87.0361 92° East 484 557 41,000  Level Chicago Center
08:13PM 42.9553 -86.8569 92° East 477 549 41,000  Level Chicago Center
08:14PM 42.9503 -86.6772 92° East 475 547 41,000  Level Chicago Center
08:15PM 42.9433 -86.4611 92° East 478 550 41,000  Level Chicago Center
08:16PM 42.9372 -86.2831 93° East 475 547 41,000  Level Chicago Center
08:17PM 42.9300 -86.1047 93° East 478 550 41,000  Level Chicago Center
08:18PM 42.9236 -85.9267 93° East 487 560 41,000  Level Chicago Center
08:19PM 42.9172 -85.7117 92° East 482 555 41,000  Level Chicago Center
08:20PM 42.9111 -85.5303 93° East 484 557 41,000  Level Chicago Center
08:21PM 42.9033 -85.3506 93° East 478 550 41,000  Level Chicago Center
08:22PM 42.8967 -85.1683 93° East 480 552 41,000  Level Chicago Center
08:24PM 42.8881 -84.9875 94° East 480 552 41,000  Level Chicago Center
08:25PM 42.8789 -84.7692 93° East 479 551 41,000  Level Chicago Center
08:26PM 42.8700 -84.5881 94° East 480 552 41,000  Level Chicago Center
08:27PM 42.8619 -84.4058 93° East 482 555 41,000  Level Chicago Center
08:28PM 42.8536 -84.2233 94° East 483 556 41,000  Level Chicago Center
08:29PM 42.8439 -84.0408 94° East 483 556 41,000  Level Chicago Center
08:30PM 42.8272 -83.8247 96° East 482 555 41,000  Level Cleveland Center
08:31PM 42.8197 -83.6431 93° East 482 555 41,000  Level Cleveland Center
08:32PM 42.8097 -83.4644 94° East 482 555 41,000  Level Cleveland Center
08:33PM 42.7994 -83.2828 94° East 482 555 41,000  Level Cleveland Center
08:34PM 42.7869 -83.1011 95° East 482 555 41,000  Level Cleveland Center
08:35PM 42.7761 -82.9197 95° East 482 555 41,000  Level Cleveland Center
08:37PM 42.7539 -82.5597 95° East 482 555 41,000  Level Cleveland Center
08:38PM 42.7422 -82.3783 95° East 482 555 41,000  Level Cleveland Center
08:39PM 42.7281 -82.1969 96° East 482 555 41,000  Level Cleveland Center
08:40PM 42.7222 -82.0161 92° East 482 555 41,000  Level Cleveland Center
08:41PM 42.7431 -81.8356 81° East 475 547 41,000  Level Cleveland Center
08:42PM 42.7389 -81.6406 92° East 470 541 41,000  Level Cleveland Center
08:43PM 42.7361 -81.4764 91° East 470 541 41,000  Level Cleveland Center
08:44PM 42.7311 -81.2897 92° East 479 551 41,000  Level Cleveland Center
08:45PM 42.7236 -81.1061 93° East 484 557 41,000 -300 Level Cleveland Center
08:46PM 42.7203 -80.9250 91° East 484 557 40,400 -780 Descending Cleveland Center
08:47PM 42.7144 -80.7414 92° East 484 557 39,500 -720 Descending Cleveland Center
08:48PM 42.7061 -80.5322 93° East 489 563 39,000 -300 Descending Cleveland Center
08:49PM 42.7017 -80.3431 92° East 503 579 39,000  Level Cleveland Center
08:50PM 42.6928 -80.1511 94° East 497 572 39,000  Level Cleveland Center
08:51PM 42.6900 -79.9617 91° East 502 578 39,000  Level Cleveland Center
08:52PM 42.6803 -79.7725 94° East 500 575 39,000  Level Cleveland Center
08:53PM 42.6728 -79.5836 93° East 500 575 39,000  Level Cleveland Center
08:54PM 42.6647 -79.3972 93° East 500 575 39,000  Level Cleveland Center
08:55PM 42.6583 -79.2111 93° East 495 570 39,000  Level Cleveland Center
08:56PM 42.6478 -79.0222 94° East 495 570 39,000  Level Cleveland Center
08:57PM 42.6389 -78.8361 94° East 500 575 39,000  Level Cleveland Center
08:58PM 42.6294 -78.6500 94° East 495 570 39,000  Level Cleveland Center
08:59PM 42.6200 -78.4614 94° East 495 570 39,000  Level Cleveland Center
09:00PM 42.6103 -78.2756 94° East 495 570 39,000  Level Cleveland Center
09:01PM 42.5978 -78.0869 95° East 495 570 39,000  Level Cleveland Center
09:02PM 42.5875 -77.9011 94° East 495 570 39,000 -60 Level Cleveland Center
09:03PM 42.5789 -77.7183 94° East 495 570 38,900  Descending Cleveland Center
09:04PM 42.5678 -77.5328 95° East 495 570 39,000  Climbing Cleveland Center
09:06PM 42.5417 -77.1694 95° East 519 597 39,000  Level Boston Center
09:07PM 42.5303 -76.9883 95° East 496 571 39,000 -900 Level Boston Center
09:08PM 42.5169 -76.7983 95° East 481 554 37,300 -2,220 Descending Boston Center
09:09PM 42.5053 -76.6089 95° East 481 554 34,600 -2,160 Descending Boston Center
09:10PM 42.4867 -76.4244 98° East 481 554 33,000 -840 Descending Boston Center
09:11PM 42.4514 -76.2447 105° East 475 547 33,000 -540 Level Boston Center
09:12PM 42.4133 -76.0625 106° East 492 566 32,000 -1,020 Descending Boston Center
09:13PM 42.3772 -75.8861 105° East 500 575 31,000 -1,080 Descending Boston Center
09:14PM 42.3369 -75.7011 106° East 505 581 29,900 -2,400 Descending Boston Center
09:15PM 42.3022 -75.5281 105° East 498 573 26,200 -3,060 Descending Boston Center
09:16PM 42.2650 -75.3550 106° East 491 565 23,800 -2,400 Descending Boston Center
09:17PM 42.2314 -75.1936 106° East 466 536 21,400 -2,400 Descending Boston Center
09:18PM 42.1972 -75.0550 108° East 426 490 19,100 -1,740 Descending Boston Center
09:19PM 42.1589 -74.9131 110° East 405 466 18,000 -600 Descending Boston Center
09:20PM 42.1053 -74.7853 119° Southeast 393 452 18,000 -180 Level Boston Center
09:21PM 42.0494 -74.6572 120° Southeast 393 452 17,700 -1,500 Descending Boston Center
09:22PM 41.9936 -74.5183 118° Southeast 393 452 15,000 -2,340 Descending Boston Center
09:23PM 41.9456 -74.4108 121° Southeast 380 437 13,100 -1,020 Descending Boston Center
09:24PM 41.8917 -74.2781 119° Southeast 367 422 13,000 -60 Descending Boston Center
09:25PM 41.8453 -74.1764 121° Southeast 367 422 13,000  Level Boston Center
09:26PM 41.7628 -74.1044 147° Southeast 345 397 13,000 -120 Level Boston Center
09:27PM 41.6636 -74.0575 161° South 345 397 12,800 -1,380 Descending Boston Center
09:28PM 41.5869 -74.0222 161° South 335 386 10,300 -3,120 Descending Boston Center
09:29PM 41.4833 -73.9833 164° South 264 304 6,000 -2,940 Descending New York TRACON
09:30PM 41.4167 -73.9500 159° South 260 299 3,800 -1,500 Descending New York TRACON
09:31PM 41.3667 -73.9167 153° Southeast 217 250 3,000 -420 Descending New York TRACON
09:32PM 41.3000 -73.8833 159° South 203 234 3,000  Level New York TRACON
09:33PM 41.2667 -73.8500 143° Southeast 181 208 3,000  Level New York TRACON
09:34PM 41.2167 -73.8167 153° Southeast 180 207 3,000 -240 Level New York TRACON
09:35PM 41.1667 -73.7833 153° Southeast 183 211 2,600 -600 Descending New York TRACON
09:36PM 41.1333 -73.7667 159° South 129 148 1,900 -660 Descending New York TRACON
09:37PM 41.1167 -73.7333 124° Southeast 120 138 1,300 -600 Descending New York TRACON
09:38PM 41.0833 -73.7167 159° South 117 135 700 -600 Descending New York TRACON
09:40PM 41.0667 -73.7000 246° West  Level FlightAware Approximate
09:47PM 41.0669 -73.7076 246° West  Level Estimated